Time;durP1;ratioP1;P1;durP2;ratioP2;P2;SDS_P1;SDS_P2;PMS_P1;PMS_P2;Temp;Humidity;BMP_temperature;BMP_pressure;BME280_temperature;BME280_humidity;BME280_pressure;Samples;Min_cycle;Max_cycle;Signal;HPM_P1;HPM_P2
2021/03/02 00:00:21;;;;;;;1.98;1.88;;;6.70;99.90;;;;;;5073784;28;20162;-76
2021/03/02 00:02:47;;;;;;;10.35;2.65;;;6.80;99.90;;;;;;5073097;28;20298;-77
2021/03/02 00:05:15;;;;;;;2.90;2.80;;;6.70;99.90;;;;;;5073767;28;20249;-77
2021/03/02 00:07:41;;;;;;;4.63;4.22;;;6.80;99.90;;;;;;5073798;28;20194;-77
2021/03/02 00:10:09;;;;;;;7.85;4.00;;;6.80;99.90;;;;;;5073669;28;20192;-77
2021/03/02 00:12:36;;;;;;;2.70;0.90;;;6.70;99.90;;;;;;5073442;28;20257;-76
2021/03/02 00:15:03;;;;;;;10.25;3.50;;;6.40;99.90;;;;;;5073256;28;20202;-76
2021/03/02 00:17:36;;;;;;;8.23;1.85;;;6.50;99.90;;;;;;5073409;28;20634;-77
2021/03/02 00:20:01;;;;;;;3.13;2.97;;;6.30;99.90;;;;;;5073966;28;20170;-77
2021/03/02 00:22:28;;;;;;;2.63;2.50;;;6.30;99.90;;;;;;5073249;28;20556;-77
2021/03/02 00:24:57;;;;;;;4.40;3.53;;;6.30;99.90;;;;;;5073609;28;20531;-78
2021/03/02 00:27:23;;;;;;;2.95;2.55;;;6.40;99.90;;;;;;5073274;28;20243;-77
2021/03/02 00:29:51;;;;;;;5.25;3.00;;;6.30;99.90;;;;;;5073334;28;20165;-77
2021/03/02 00:32:21;;;;;;;5.85;4.30;;;6.30;99.90;;;;;;5073281;28;20540;-76
2021/03/02 00:34:47;;;;;;;5.05;3.28;;;6.30;99.90;;;;;;5073318;28;20194;-77
2021/03/02 00:37:13;;;;;;;2.42;2.00;;;6.40;99.90;;;;;;5073516;28;20190;-76
2021/03/02 00:39:39;;;;;;;6.97;4.57;;;6.40;99.90;;;;;;5073226;28;20511;-77
2021/03/02 00:42:05;;;;;;;5.85;3.92;;;6.50;99.90;;;;;;5073173;28;20702;-78
2021/03/02 00:44:30;;;;;;;3.55;3.35;;;6.60;99.90;;;;;;5073240;28;20197;-77
2021/03/02 00:46:56;;;;;;;1.95;1.50;;;6.70;99.90;;;;;;5073321;28;20190;-77
2021/03/02 00:49:21;;;;;;;5.63;4.35;;;6.50;99.90;;;;;;5073146;28;20198;-78
2021/03/02 00:51:47;;;;;;;1.05;0.95;;;6.50;99.90;;;;;;5073232;28;20178;-78
2021/03/02 00:54:13;;;;;;;3.13;2.72;;;6.30;99.90;;;;;;5073166;28;20236;-78
2021/03/02 00:56:38;;;;;;;10.35;3.45;;;6.40;99.90;;;;;;5072849;28;20219;-78
2021/03/02 00:59:04;;;;;;;3.97;3.58;;;6.50;99.90;;;;;;5072990;28;20629;-78
2021/03/02 01:01:31;;;;;;;1.80;1.35;;;6.70;99.90;;;;;;5073202;28;20171;-77
2021/03/02 01:03:56;;;;;;;13.50;3.90;;;6.50;99.90;;;;;;5075384;28;20208;-79
2021/03/02 01:06:22;;;;;;;9.73;2.88;;;6.50;99.90;;;;;;5076916;28;20186;-78
2021/03/02 01:08:48;;;;;;;3.53;3.22;;;6.60;99.90;;;;;;5076557;28;20629;-78
2021/03/02 01:11:13;;;;;;;1.75;1.73;;;6.70;99.90;;;;;;5076758;28;20170;-78
2021/03/02 01:13:39;;;;;;;1.52;1.33;;;6.80;99.90;;;;;;5076473;28;20622;-78
2021/03/02 01:16:05;;;;;;;3.47;3.28;;;6.80;99.90;;;;;;5075781;28;20210;-78
2021/03/02 01:18:30;;;;;;;9.48;4.88;;;6.80;99.90;;;;;;5076220;28;20166;-78
2021/03/02 01:20:56;;;;;;;4.65;3.53;;;7.00;99.90;;;;;;5076315;28;20311;-78
2021/03/02 01:23:21;;;;;;;6.00;3.42;;;7.00;99.90;;;;;;5076319;28;20174;-77
2021/03/02 01:25:47;;;;;;;2.63;2.53;;;7.10;99.90;;;;;;5076229;28;20185;-78
2021/03/02 01:28:12;;;;;;;6.15;2.20;;;7.00;99.90;;;;;;5076648;28;20163;-77
2021/03/02 01:30:38;;;;;;;2.20;2.10;;;7.20;99.90;;;;;;5085289;28;20159;-79
2021/03/02 01:33:05;;;;;;;5.07;2.95;;;7.00;99.90;;;;;;5083357;28;20686;-77
2021/03/02 01:35:31;;;;;;;16.20;4.40;;;7.00;99.90;;;;;;5083039;28;20206;-78
2021/03/02 01:37:57;;;;;;;11.48;4.57;;;7.10;99.90;;;;;;5085003;28;20202;-77
2021/03/02 01:40:23;;;;;;;5.53;2.95;;;7.10;99.90;;;;;;5086120;28;20190;-77
2021/03/02 01:42:48;;;;;;;6.07;4.75;;;6.90;99.90;;;;;;5067895;28;20201;-78
2021/03/02 01:45:17;;;;;;;6.18;3.60;;;7.00;99.90;;;;;;5085810;28;20174;-77
2021/03/02 01:47:44;;;;;;;6.32;3.03;;;6.90;99.90;;;;;;5084031;28;20730;-77
2021/03/02 01:50:11;;;;;;;1.48;1.38;;;6.70;99.90;;;;;;5083217;28;20637;-77
2021/03/02 01:52:37;;;;;;;8.07;4.50;;;6.60;99.90;;;;;;5082986;28;20295;-77
2021/03/02 01:55:06;;;;;;;3.78;2.63;;;6.30;99.90;;;;;;5065124;28;20217;-77
2021/03/02 01:57:31;;;;;;;2.20;2.00;;;6.20;99.90;;;;;;5084640;28;20214;-77
2021/03/02 01:59:57;;;;;;;19.17;4.25;;;6.20;99.90;;;;;;5085397;28;20154;-77
2021/03/02 02:02:54;;;;;;;4.80;4.30;;;6.50;99.90;;;;;;5066824;28;20186;-77
2021/03/02 02:05:23;;;;;;;3.40;3.10;;;6.40;99.90;;;;;;5083367;28;20243;-77
2021/03/02 02:07:56;;;;;;;5.55;3.75;;;6.40;99.90;;;;;;5083224;28;20194;-77
2021/03/02 02:10:29;;;;;;;24.90;2.95;;;6.30;99.90;;;;;;5083555;28;20253;-77
2021/03/02 02:13:02;;;;;;;5.70;5.28;;;6.20;99.90;;;;;;5086179;28;20166;-76
2021/03/02 02:15:34;;;;;;;9.05;2.05;;;6.10;99.90;;;;;;5074940;28;20726;-76
2021/03/02 02:18:14;;;;;;;5.20;3.97;;;6.10;99.90;;;;;;5075559;28;20216;-76
2021/03/02 02:21:13;;;;;;;4.45;3.58;;;6.10;99.90;;;;;;5075417;28;20159;-77
2021/03/02 02:24:15;;;;;;;3.10;2.10;;;5.90;99.90;;;;;;5075548;28;20154;-76
2021/03/02 02:26:56;;;;;;;3.85;2.17;;;5.90;99.90;;;;;;5062148;28;20233;-78
2021/03/02 02:29:28;;;;;;;2.75;2.63;;;5.90;99.90;;;;;;5075290;28;20166;-76
2021/03/02 02:31:58;;;;;;;2.60;2.47;;;6.00;99.90;;;;;;5075232;28;20235;-76
2021/03/02 02:34:25;;;;;;;3.03;1.65;;;6.10;99.90;;;;;;5075204;28;20247;-75
2021/03/02 02:36:54;;;;;;;3.15;2.95;;;6.10;99.90;;;;;;5074768;28;20653;-77
2021/03/02 02:39:21;;;;;;;2.33;2.22;;;6.10;99.90;;;;;;5074581;28;20657;-76
2021/03/02 02:41:48;;;;;;;4.85;2.30;;;6.20;99.90;;;;;;5074623;28;20574;-77
2021/03/02 02:44:15;;;;;;;5.75;3.25;;;6.20;99.90;;;;;;5074495;28;20151;-76
2021/03/02 02:46:42;;;;;;;1.38;1.25;;;6.10;99.90;;;;;;5074586;28;20192;-76
2021/03/02 02:49:10;;;;;;;8.27;3.83;;;5.90;99.90;;;;;;5074526;28;20163;-75
2021/03/02 02:51:37;;;;;;;1.40;1.38;;;6.00;99.90;;;;;;5074427;28;20170;-76
2021/03/02 02:54:04;;;;;;;7.65;5.97;;;6.00;99.90;;;;;;5074147;28;20159;-77
2021/03/02 02:56:31;;;;;;;1.15;1.15;;;6.10;99.90;;;;;;5074288;28;20633;-76
2021/03/02 02:59:25;;;;;;;1.50;1.50;;;6.00;99.90;;;;;;5073969;28;20159;-76
2021/03/02 03:02:00;;;;;;;1.40;1.35;;;5.80;99.90;;;;;;5074119;28;20158;-75
2021/03/02 03:04:32;;;;;;;3.83;2.28;;;5.80;99.90;;;;;;5074241;28;20166;-77
2021/03/02 03:06:59;;;;;;;3.35;3.03;;;5.70;99.90;;;;;;5074194;28;20277;-77
2021/03/02 03:09:25;;;;;;;0.82;0.52;;;5.80;99.90;;;;;;5074262;28;20170;-78
2021/03/02 03:11:59;;;;;;;3.65;2.00;;;5.80;99.90;;;;;;5074107;28;20169;-76
2021/03/02 03:14:27;;;;;;;2.22;2.10;;;5.90;99.90;;;;;;5074046;28;20198;-77
2021/03/02 03:16:57;;;;;;;3.55;3.35;;;5.80;99.90;;;;;;5073991;28;20244;-77
2021/03/02 03:19:25;;;;;;;2.40;2.08;;;6.00;99.90;;;;;;5074004;28;20159;-75
2021/03/02 03:21:52;;;;;;;1.45;1.45;;;6.00;99.90;;;;;;5073928;28;20189;-76
2021/03/02 03:24:19;;;;;;;2.72;2.58;;;6.00;99.90;;;;;;5074036;28;20159;-75
2021/03/02 03:26:46;;;;;;;9.13;3.60;;;6.00;99.90;;;;;;5073808;28;20190;-77
2021/03/02 03:29:14;;;;;;;9.57;4.35;;;6.00;99.90;;;;;;5073963;28;20163;-77
2021/03/02 03:31:40;;;;;;;2.58;2.38;;;5.90;99.90;;;;;;5073917;28;20531;-76
2021/03/02 03:34:06;;;;;;;5.75;2.00;;;5.60;99.90;;;;;;5073499;28;20172;-75
2021/03/02 03:36:34;;;;;;;3.42;3.13;;;5.50;99.90;;;;;;5073512;28;20804;-76
2021/03/02 03:38:59;;;;;;;2.67;2.28;;;5.40;99.90;;;;;;5073682;28;20167;-75
2021/03/02 03:41:25;;;;;;;4.45;3.28;;;5.60;99.90;;;;;;5073709;28;20177;-75
2021/03/02 03:43:51;;;;;;;2.67;2.25;;;5.60;99.90;;;;;;5073581;28;20231;-75
2021/03/02 03:46:16;;;;;;;1.88;1.77;;;5.70;99.90;;;;;;5073445;28;20190;-76
2021/03/02 03:48:42;;;;;;;2.25;2.15;;;5.80;99.90;;;;;;5055687;28;20220;-77
2021/03/02 03:51:08;;;;;;;4.60;2.72;;;5.70;99.90;;;;;;5073372;28;20229;-77
2021/03/02 03:53:38;;;;;;;0.95;0.95;;;5.50;99.90;;;;;;5073269;28;20169;-75
2021/03/02 03:56:06;;;;;;;2.60;2.40;;;5.40;99.90;;;;;;5073013;28;20302;-74
2021/03/02 03:58:33;;;;;;;3.15;2.95;;;5.40;99.90;;;;;;5072979;28;20557;-76
2021/03/02 04:01:02;;;;;;;4.90;2.45;;;5.40;99.90;;;;;;5073138;28;20530;-77
2021/03/02 04:03:32;;;;;;;3.08;2.83;;;5.40;99.90;;;;;;5073328;28;20155;-77
2021/03/02 04:06:00;;;;;;;3.85;3.60;;;5.40;99.90;;;;;;5073030;28;20186;-77
2021/03/02 04:08:27;;;;;;;5.68;3.60;;;5.30;99.90;;;;;;5073221;28;20185;-78
2021/03/02 04:10:53;;;;;;;1.30;1.30;;;5.40;99.90;;;;;;5073454;28;20185;-75
2021/03/02 04:13:19;;;;;;;1.88;1.77;;;5.40;99.90;;;;;;5073232;28;20151;-77
2021/03/02 04:15:45;;;;;;;16.17;3.65;;;5.40;99.90;;;;;;5073017;28;20191;-77
2021/03/02 04:18:13;;;;;;;2.45;2.35;;;5.40;99.90;;;;;;5073060;28;20174;-76
2021/03/02 04:20:40;;;;;;;0.82;0.82;;;5.60;99.90;;;;;;5072882;28;20185;-77
2021/03/02 04:23:06;;;;;;;4.13;3.30;;;5.60;99.90;;;;;;5073197;28;20180;-78
2021/03/02 04:25:32;;;;;;;2.42;2.33;;;5.60;99.90;;;;;;5073405;28;20178;-76
2021/03/02 04:28:02;;;;;;;30.67;1.98;;;5.50;99.90;;;;;;5072865;28;20188;-76
2021/03/02 04:30:28;;;;;;;1.88;1.77;;;5.50;99.90;;;;;;5055259;28;20166;-76
2021/03/02 04:32:54;;;;;;;2.50;2.10;;;5.60;99.90;;;;;;5072909;28;20189;-77
2021/03/02 04:35:20;;;;;;;2.00;1.85;;;5.60;99.90;;;;;;5054820;28;20301;-77
2021/03/02 04:37:46;;;;;;;2.65;2.42;;;5.60;99.90;;;;;;5073302;28;20197;-77
2021/03/02 04:40:12;;;;;;;1.73;1.63;;;5.50;99.90;;;;;;5076970;28;20169;-76
2021/03/02 04:42:38;;;;;;;4.88;2.75;;;5.50;99.90;;;;;;5058797;28;20186;-76
2021/03/02 04:45:06;;;;;;;51.30;3.72;;;5.40;99.90;;;;;;5076567;28;20653;-76
2021/03/02 04:47:32;;;;;;;4.30;1.95;;;5.30;99.90;;;;;;5076670;28;20675;-77
2021/03/02 04:49:58;;;;;;;3.45;2.63;;;5.30;99.90;;;;;;5076840;28;20241;-76
2021/03/02 04:52:23;;;;;;;3.90;2.50;;;5.20;99.90;;;;;;5076534;28;20197;-77
2021/03/02 04:54:49;;;;;;;3.50;2.78;;;5.20;99.90;;;;;;5077151;28;20213;-76
2021/03/02 04:57:15;;;;;;;2.53;2.30;;;5.30;99.90;;;;;;5076356;28;20214;-76
2021/03/02 04:59:41;;;;;;;1.42;1.38;;;5.50;99.90;;;;;;5076489;28;20224;-75
2021/03/02 05:02:06;;;;;;;1.20;1.20;;;5.50;99.90;;;;;;5076507;28;20185;-78
2021/03/02 05:04:32;;;;;;;2.47;2.35;;;5.50;99.90;;;;;;5076645;28;20170;-76
2021/03/02 05:06:58;;;;;;;6.78;2.03;;;5.50;99.90;;;;;;5076424;28;20197;-76
2021/03/02 05:09:23;;;;;;;6.82;3.50;;;5.50;99.90;;;;;;5076372;28;20658;-77
2021/03/02 05:11:49;;;;;;;2.42;1.33;;;5.60;99.90;;;;;;5076357;28;20246;-76
2021/03/02 05:14:14;;;;;;;6.28;3.70;;;5.40;99.90;;;;;;5076169;28;20577;-77
2021/03/02 05:16:40;;;;;;;3.45;3.13;;;5.50;99.90;;;;;;5076256;28;20197;-76
2021/03/02 05:19:05;;;;;;;2.80;2.30;;;5.50;99.90;;;;;;5075973;28;20245;-76
2021/03/02 05:21:31;;;;;;;2.72;1.55;;;5.40;99.90;;;;;;5076066;28;20166;-75
2021/03/02 05:23:57;;;;;;;0.80;0.80;;;5.50;99.90;;;;;;5075971;28;20224;-75
2021/03/02 05:26:22;;;;;;;3.38;2.05;;;5.60;99.90;;;;;;5075910;28;20286;-76
2021/03/02 05:28:49;;;;;;;3.28;3.00;;;5.50;99.90;;;;;;5076021;28;20644;-77
2021/03/02 05:31:17;;;;;;;8.48;3.55;;;5.50;99.90;;;;;;5075764;28;20250;-75
2021/03/02 05:33:43;;;;;;;3.03;2.88;;;5.50;99.90;;;;;;5076068;28;20515;-76
2021/03/02 05:36:09;;;;;;;1.17;1.17;;;5.40;99.90;;;;;;5075701;28;20206;-76
2021/03/02 05:38:37;;;;;;;5.75;2.90;;;5.60;99.90;;;;;;5075727;28;20190;-76
2021/03/02 05:41:03;;;;;;;5.63;3.45;;;5.50;99.90;;;;;;5075670;28;20261;-76
2021/03/02 05:43:30;;;;;;;4.78;2.40;;;5.60;99.90;;;;;;5075528;28;20155;-75
2021/03/02 05:45:56;;;;;;;0.75;0.75;;;5.60;99.90;;;;;;5075458;28;20182;-76
2021/03/02 05:48:25;;;;;;;2.35;1.58;;;5.60;99.90;;;;;;5075499;28;20163;-75
2021/03/02 05:50:55;;;;;;;5.22;0.93;;;5.60;99.90;;;;;;5074464;28;20249;-77
2021/03/02 05:53:21;;;;;;;1.73;1.60;;;5.60;99.90;;;;;;5075525;28;20513;-77
2021/03/02 05:55:47;;;;;;;1.20;0.98;;;5.60;99.90;;;;;;5057201;28;20202;-77
2021/03/02 05:58:15;;;;;;;6.72;1.92;;;5.80;99.90;;;;;;5075426;28;20583;-76
2021/03/02 06:00:41;;;;;;;2.33;2.20;;;5.90;99.90;;;;;;5075507;28;20174;-77
2021/03/02 06:03:07;;;;;;;4.47;3.40;;;6.00;99.90;;;;;;5075122;28;20491;-79
2021/03/02 06:05:34;;;;;;;0.82;0.82;;;5.90;99.90;;;;;;5075397;28;20657;-79
2021/03/02 06:08:00;;;;;;;2.05;1.75;;;5.80;99.90;;;;;;5075056;28;20198;-79
2021/03/02 06:10:32;;;;;;;2.22;2.10;;;5.80;99.90;;;;;;5075308;28;20163;-79
2021/03/02 06:12:59;;;;;;;2.55;1.88;;;5.90;99.90;;;;;;5074969;28;20173;-77
2021/03/02 06:15:30;;;;;;;2.05;1.77;;;5.90;99.90;;;;;;5074707;28;20217;-78
2021/03/02 06:18:13;;;;;;;2.15;2.05;;;5.90;99.90;;;;;;5075095;28;20539;-79
2021/03/02 06:20:40;;;;;;;8.10;2.65;;;5.80;99.90;;;;;;5074703;28;20170;-77
2021/03/02 06:23:27;;;;;;;4.85;2.00;;;5.80;99.90;;;;;;5074826;28;20154;-78
2021/03/02 06:26:14;;;;;;;2.58;1.67;;;5.70;99.90;;;;;;5074647;28;20538;-77
2021/03/02 06:28:39;;;;;;;9.70;2.72;;;5.80;99.90;;;;;;5074725;28;20228;-77
2021/03/02 06:31:06;;;;;;;5.18;3.20;;;5.70;99.90;;;;;;5074987;28;20178;-78
2021/03/02 06:33:32;;;;;;;1.48;1.40;;;5.60;99.90;;;;;;5074739;28;20617;-78
2021/03/02 06:35:57;;;;;;;4.13;2.40;;;5.70;99.90;;;;;;5074304;28;20206;-77
2021/03/02 06:38:41;;;;;;;2.38;2.17;;;5.80;99.90;;;;;;5074144;28;20174;-78
2021/03/02 06:41:06;;;;;;;4.20;3.00;;;5.80;99.90;;;;;;5074425;28;20663;-77
2021/03/02 06:43:39;;;;;;;2.72;1.52;;;5.90;99.90;;;;;;5073954;28;20190;-76
2021/03/02 06:46:06;;;;;;;2.83;2.63;;;5.80;99.90;;;;;;5074106;28;20186;-79
2021/03/02 06:48:48;;;;;;;2.67;2.47;;;5.70;99.90;;;;;;5074144;28;20200;-77
2021/03/02 06:51:34;;;;;;;2.38;2.17;;;5.60;99.90;;;;;;5056128;28;20522;-78
2021/03/02 06:54:10;;;;;;;2.33;2.22;;;5.70;99.90;;;;;;5073921;28;20194;-76
2021/03/02 06:56:39;;;;;;;3.92;2.25;;;5.70;99.90;;;;;;5073544;28;20279;-75
2021/03/02 06:59:19;;;;;;;5.93;2.88;;;5.90;99.90;;;;;;5073690;28;20159;-78
2021/03/02 07:01:48;;;;;;;1.65;1.55;;;6.00;99.90;;;;;;5073571;28;20189;-76
2021/03/02 07:04:19;;;;;;;2.50;2.30;;;5.90;99.90;;;;;;5073368;28;20516;-77
2021/03/02 07:06:49;;;;;;;3.00;2.72;;;5.90;99.90;;;;;;5073342;28;20276;-78
2021/03/02 07:09:16;;;;;;;1.88;1.70;;;6.00;99.90;;;;;;5052893;28;20179;-76
2021/03/02 07:11:42;;;;;;;19.75;3.40;;;5.90;99.90;;;;;;5053360;28;20174;-76
2021/03/02 07:14:14;;;;;;;0.90;0.90;;;5.70;99.90;;;;;;5053967;28;20527;-77
2021/03/02 07:16:44;;;;;;;1.95;1.85;;;5.80;99.90;;;;;;5052949;28;20203;-76
2021/03/02 07:19:18;;;;;;;1.63;1.27;;;6.20;99.90;;;;;;5052951;28;20293;-77
2021/03/02 07:21:46;;;;;;;0.98;0.98;;;6.30;99.90;;;;;;5053074;28;20166;-77
2021/03/02 07:24:14;;;;;;;1.85;1.75;;;6.20;99.90;;;;;;5052745;28;20234;-77
2021/03/02 07:26:45;;;;;;;1.38;1.33;;;6.10;99.90;;;;;;5051486;28;20635;-77
2021/03/02 07:29:12;;;;;;;1.25;1.25;;;6.30;99.90;;;;;;5071247;28;20170;-76
2021/03/02 07:31:39;;;;;;;24.17;2.15;;;6.40;99.90;;;;;;5072406;28;20166;-76
2021/03/02 07:34:08;;;;;;;2.25;2.15;;;6.50;99.90;;;;;;5072262;28;20161;-75
2021/03/02 07:36:39;;;;;;;2.65;2.20;;;6.60;99.90;;;;;;5062011;28;20560;-77
2021/03/02 07:39:14;;;;;;;2.40;2.20;;;6.50;99.90;;;;;;5070106;28;20634;-77
2021/03/02 07:41:40;;;;;;;1.50;1.48;;;6.50;99.90;;;;;;5064078;28;20577;-76
2021/03/02 07:44:07;;;;;;;5.32;3.50;;;6.70;99.90;;;;;;5051535;28;20167;-75
2021/03/02 07:46:41;;;;;;;2.10;1.98;;;6.70;99.90;;;;;;5051941;28;20247;-75
2021/03/02 07:49:25;;;;;;;7.47;1.20;;;6.80;99.90;;;;;;5052123;28;20222;-73
2021/03/02 07:51:56;;;;;;;2.00;1.90;;;6.90;99.90;;;;;;5052727;28;20167;-75
2021/03/02 07:54:22;;;;;;;2.22;1.60;;;6.90;99.90;;;;;;5052767;28;20178;-76
2021/03/02 07:56:48;;;;;;;2.33;1.60;;;7.10;99.90;;;;;;5068630;28;20312;-76
2021/03/02 07:59:14;;;;;;;16.23;4.82;;;7.20;99.90;;;;;;5052231;28;20628;-75
2021/03/02 08:01:40;;;;;;;2.22;2.13;;;7.30;99.90;;;;;;5062368;28;20178;-76
2021/03/02 08:04:14;;;;;;;4.10;3.70;;;7.30;99.90;;;;;;5070267;28;20158;-76
2021/03/02 08:06:41;;;;;;;3.72;2.72;;;7.30;99.90;;;;;;5053138;28;20553;-81
2021/03/02 08:09:30;;;;;;;5.05;3.03;;;7.30;99.90;;;;;;5072346;28;20178;-82
2021/03/02 08:12:26;;;;;;;1.85;1.13;;;7.50;99.90;;;;;;5060365;28;20185;-76
2021/03/02 08:14:51;;;;;;;20.88;5.25;;;7.50;99.90;;;;;;5053764;28;20195;-75
2021/03/02 08:17:22;;;;;;;7.18;2.35;;;7.70;99.90;;;;;;5051072;28;20202;-77
2021/03/02 08:19:59;;;;;;;4.72;4.20;;;7.80;99.90;;;;;;5051772;28;20163;-73
2021/03/02 08:22:26;;;;;;;3.00;2.35;;;7.90;99.90;;;;;;5051179;28;20170;-77
2021/03/02 08:25:11;;;;;;;3.83;2.05;;;8.00;99.90;;;;;;5051110;28;20193;-77
2021/03/02 08:27:45;;;;;;;5.47;1.27;;;8.10;99.90;;;;;;5055040;28;20229;-74
2021/03/02 08:30:24;;;;;;;2.83;2.05;;;8.00;99.90;;;;;;5071412;28;20155;-77
2021/03/02 08:32:51;;;;;;;2.67;2.47;;;7.90;99.90;;;;;;5071398;28;20167;-79
2021/03/02 08:35:21;;;;;;;4.55;1.83;;;8.10;99.90;;;;;;5070990;28;20262;-75
2021/03/02 08:37:55;;;;;;;1.63;1.52;;;8.20;99.90;;;;;;5070965;28;20277;-75
2021/03/02 08:40:47;;;;;;;2.80;2.13;;;8.20;99.90;;;;;;5071891;28;20502;-75
2021/03/02 08:43:23;;;;;;;2.67;1.95;;;8.40;99.90;;;;;;5060201;28;20163;-77
2021/03/02 08:45:54;;;;;;;2.08;1.98;;;8.60;99.90;;;;;;5050956;28;20167;-77
2021/03/02 08:48:27;;;;;;;4.95;2.22;;;8.70;99.90;;;;;;5032911;28;20174;-77
2021/03/02 08:50:55;;;;;;;4.05;3.35;;;8.80;99.90;;;;;;5050344;28;20528;-78
2021/03/02 08:53:41;;;;;;;2.17;2.03;;;8.80;99.90;;;;;;5051237;28;20147;-75
2021/03/02 08:56:14;;;;;;;3.80;2.35;;;8.90;99.90;;;;;;5030762;28;20231;-75
2021/03/02 08:58:42;;;;;;;1.77;1.52;;;9.10;99.90;;;;;;5030757;28;20180;-74
2021/03/02 09:01:13;;;;;;;3.08;2.83;;;9.10;99.90;;;;;;5031024;28;20164;-77
2021/03/02 09:03:45;;;;;;;31.42;2.92;;;9.20;99.90;;;;;;5031532;28;20263;-76
2021/03/02 09:06:10;;;;;;;2.05;1.92;;;9.40;99.90;;;;;;5031026;28;20201;-74
2021/03/02 09:08:54;;;;;;;2.40;2.20;;;9.60;99.90;;;;;;5058252;28;20206;-74
2021/03/02 09:11:22;;;;;;;3.42;1.42;;;9.70;99.90;;;;;;5030840;28;20218;-76
2021/03/02 09:13:49;;;;;;;4.15;2.15;;;9.80;99.90;;;;;;5030991;28;20195;-78
2021/03/02 09:16:43;;;;;;;6.45;2.92;;;9.90;99.90;;;;;;5030671;28;20260;-74
2021/03/02 09:19:19;;;;;;;4.13;2.83;;;10.00;99.90;;;;;;5028809;28;20230;-77
2021/03/02 09:21:56;;;;;;;1.92;1.83;;;10.10;99.90;;;;;;5030614;28;20618;-76
2021/03/02 09:24:23;;;;;;;2.63;2.40;;;10.30;99.90;;;;;;5020049;28;20167;-76
2021/03/02 09:26:56;;;;;;;28.92;3.38;;;10.40;99.90;;;;;;5035959;28;20286;-74
2021/03/02 09:29:24;;;;;;;4.30;3.90;;;10.20;99.90;;;;;;5053965;28;20221;-73
2021/03/02 09:31:51;;;;;;;1.92;1.67;;;10.20;99.90;;;;;;5054333;28;20627;-77
2021/03/02 09:34:17;;;;;;;4.53;2.60;;;10.40;99.90;;;;;;5054187;28;20238;-74
2021/03/02 09:36:43;;;;;;;3.75;2.65;;;10.50;99.90;;;;;;5053450;28;20606;-76
2021/03/02 09:39:24;;;;;;;8.18;1.80;;;10.70;99.90;;;;;;5072236;28;20227;-76
2021/03/02 09:41:50;;;;;;;1.88;1.77;;;10.80;99.90;;;;;;5073819;28;20688;-76
2021/03/02 09:44:33;;;;;;;2.92;2.67;;;11.00;99.90;;;;;;5073694;28;20163;-75
2021/03/02 09:47:05;;;;;;;1.90;1.80;;;11.20;99.90;;;;;;5073640;28;20186;-75
2021/03/02 09:49:31;;;;;;;2.58;2.15;;;11.40;99.90;;;;;;5073351;28;20254;-76
2021/03/02 09:51:57;;;;;;;10.30;3.38;;;11.40;99.90;;;;;;5073701;28;20253;-75
2021/03/02 09:54:22;;;;;;;7.05;2.55;;;11.50;99.90;;;;;;5067659;28;20175;-76
2021/03/02 09:57:02;;;;;;;2.50;1.75;;;11.60;99.90;;;;;;5053664;28;20234;-75
2021/03/02 09:59:29;;;;;;;9.38;4.80;;;11.70;99.90;;;;;;5053241;28;20238;-76
2021/03/02 10:01:55;;;;;;;3.05;1.45;;;11.80;99.90;;;;;;5053158;28;20258;-76
2021/03/02 10:04:22;;;;;;;5.82;3.75;;;12.00;99.90;;;;;;5054114;28;20577;-75
2021/03/02 10:06:47;;;;;;;3.30;2.03;;;12.00;99.90;;;;;;5054516;28;20703;-74
2021/03/02 10:09:21;;;;;;;5.60;1.63;;;12.00;99.90;;;;;;5073383;28;20179;-75
2021/03/02 10:11:47;;;;;;;7.47;2.95;;;12.10;99.90;;;;;;5074898;28;20219;-76
2021/03/02 10:14:13;;;;;;;5.47;2.20;;;12.20;99.90;;;;;;5074710;28;20171;-74
2021/03/02 10:16:41;;;;;;;2.95;2.17;;;12.10;99.90;;;;;;5074603;28;20217;-75
2021/03/02 10:19:23;;;;;;;2.45;1.55;;;12.10;99.90;;;;;;5074471;28;20950;-75
2021/03/02 10:21:59;;;;;;;8.65;2.20;;;12.20;99.90;;;;;;5074103;28;20266;-75
2021/03/02 10:24:39;;;;;;;3.55;1.45;;;12.40;99.90;;;;;;5074160;28;20162;-74
2021/03/02 10:27:15;;;;;;;1.00;1.00;;;12.30;99.90;;;;;;5074411;28;20280;-74
2021/03/02 10:29:42;;;;;;;8.20;2.10;;;12.40;99.90;;;;;;5073837;28;20610;-74
2021/03/02 10:32:09;;;;;;;15.73;3.30;;;12.70;99.90;;;;;;5074196;28;20167;-74
2021/03/02 10:34:36;;;;;;;3.42;2.22;;;12.70;99.90;;;;;;5073775;28;20622;-74
2021/03/02 10:37:04;;;;;;;3.08;2.67;;;12.70;99.90;;;;;;5073465;28;20273;-74
2021/03/02 10:39:30;;;;;;;3.13;2.85;;;12.90;99.90;;;;;;5073561;28;20502;-76
2021/03/02 10:41:56;;;;;;;5.28;3.08;;;13.00;99.90;;;;;;5073987;28;20174;-74
2021/03/02 10:44:22;;;;;;;12.18;2.15;;;13.20;99.90;;;;;;5049254;28;20171;-76
2021/03/02 10:46:48;;;;;;;7.20;3.50;;;13.30;99.90;;;;;;5045550;28;20203;-76
2021/03/02 10:49:13;;;;;;;1.65;1.55;;;13.40;99.90;;;;;;5038975;28;20187;-76
2021/03/02 10:51:40;;;;;;;2.50;2.33;;;13.30;99.90;;;;;;5067922;28;20183;-75
2021/03/02 10:54:06;;;;;;;9.20;4.18;;;13.30;99.90;;;;;;5068396;28;20173;-75
2021/03/02 10:56:31;;;;;;;4.57;2.00;;;13.30;99.90;;;;;;5072041;28;20214;-74
2021/03/02 10:58:58;;;;;;;9.70;2.90;;;13.30;99.90;;;;;;5073505;28;20519;-75
2021/03/02 11:01:24;;;;;;;1.60;1.50;;;13.30;99.90;;;;;;5073626;28;20167;-75
2021/03/02 11:03:50;;;;;;;2.97;2.13;;;13.30;99.90;;;;;;5055547;28;20524;-74
2021/03/02 11:06:17;;;;;;;3.20;2.47;;;13.50;99.90;;;;;;5073276;28;20232;-78
2021/03/02 11:08:44;;;;;;;6.43;2.83;;;13.60;99.90;;;;;;5055573;28;20225;-75
2021/03/02 11:11:13;;;;;;;20.60;2.05;;;13.50;99.90;;;;;;5073369;28;20208;-75
2021/03/02 11:13:40;;;;;;;1.55;1.40;;;13.30;99.90;;;;;;5073771;28;20155;-75
2021/03/02 11:16:06;;;;;;;2.88;1.55;;;13.50;99.90;;;;;;5073150;28;20208;-75
2021/03/02 11:18:32;;;;;;;3.35;2.28;;;13.60;99.90;;;;;;5073796;28;20158;-75
2021/03/02 11:20:58;;;;;;;3.55;2.47;;;13.70;99.90;;;;;;5073322;28;20159;-75
2021/03/02 11:23:23;;;;;;;11.95;3.38;;;13.60;99.90;;;;;;5073314;28;20648;-75
2021/03/02 11:25:49;;;;;;;5.30;3.85;;;13.70;99.90;;;;;;5072972;28;20171;-74
2021/03/02 11:28:15;;;;;;;6.35;2.92;;;13.70;99.90;;;;;;5056607;28;20223;-74
2021/03/02 11:30:41;;;;;;;4.30;1.95;;;13.70;99.90;;;;;;5055976;28;20178;-74
2021/03/02 11:33:08;;;;;;;2.40;1.42;;;13.90;99.90;;;;;;5068728;28;20178;-74
2021/03/02 11:35:34;;;;;;;11.82;3.28;;;13.90;99.90;;;;;;5054946;28;20202;-75
2021/03/02 11:38:00;;;;;;;8.68;3.60;;;14.10;99.90;;;;;;5072800;28;20197;-75
2021/03/02 11:40:27;;;;;;;1.98;1.88;;;14.10;99.90;;;;;;5073104;28;20165;-75
2021/03/02 11:42:53;;;;;;;7.40;2.60;;;14.30;99.90;;;;;;5072732;28;20161;-75
2021/03/02 11:45:22;;;;;;;3.50;2.35;;;14.10;99.90;;;;;;5073286;28;20249;-75
2021/03/02 11:47:49;;;;;;;7.72;2.53;;;14.30;99.90;;;;;;5071924;28;20186;-75
2021/03/02 11:50:14;;;;;;;2.55;2.10;;;14.20;99.90;;;;;;5072927;28;20621;-75
2021/03/02 11:52:40;;;;;;;5.65;3.10;;;14.20;99.90;;;;;;5072612;28;20178;-75
2021/03/02 11:55:07;;;;;;;7.03;4.05;;;14.30;99.90;;;;;;5072930;28;20235;-75
2021/03/02 11:57:34;;;;;;;4.13;2.53;;;14.40;99.90;;;;;;5072564;28;20266;-75
2021/03/02 12:00:00;;;;;;;18.08;4.28;;;14.40;99.90;;;;;;5072202;28;20617;-75
2021/03/02 12:02:26;;;;;;;2.78;2.58;;;14.50;99.90;;;;;;5072679;28;20212;-75
2021/03/02 12:04:52;;;;;;;11.70;3.03;;;14.60;99.90;;;;;;5072697;28;20204;-76
2021/03/02 12:07:17;;;;;;;3.55;3.03;;;14.60;99.90;;;;;;5072855;28;20198;-75
2021/03/02 12:09:43;;;;;;;4.20;3.17;;;14.70;99.90;;;;;;5072531;28;20251;-74
2021/03/02 12:12:09;;;;;;;3.38;3.08;;;14.80;99.90;;;;;;5072773;28;20167;-74
2021/03/02 12:14:35;;;;;;;1.35;1.25;;;14.70;99.90;;;;;;5072501;28;20162;-74
2021/03/02 12:17:01;;;;;;;2.35;2.15;;;14.80;99.90;;;;;;5072446;28;20209;-74
2021/03/02 12:19:28;;;;;;;4.32;3.92;;;14.80;99.90;;;;;;5072483;28;20175;-74
2021/03/02 12:21:53;;;;;;;3.95;3.53;;;15.00;99.90;;;;;;5072400;28;20177;-76
2021/03/02 12:24:19;;;;;;;5.43;2.90;;;15.00;99.90;;;;;;5072601;28;20159;-75
2021/03/02 12:26:46;;;;;;;12.60;3.47;;;15.00;99.90;;;;;;5072179;28;20195;-75
2021/03/02 12:29:12;;;;;;;22.88;3.47;;;15.10;99.90;;;;;;5072131;28;20162;-75
2021/03/02 12:31:38;;;;;;;1.52;1.38;;;15.10;99.90;;;;;;5072133;28;20625;-76
2021/03/02 12:34:03;;;;;;;2.25;2.05;;;15.20;99.90;;;;;;5072138;28;20181;-75
2021/03/02 12:36:29;;;;;;;5.63;2.47;;;15.30;99.90;;;;;;5071900;28;20673;-75
2021/03/02 12:38:55;;;;;;;4.38;2.38;;;15.30;99.90;;;;;;5072116;28;20198;-75
2021/03/02 12:41:21;;;;;;;2.78;2.03;;;15.30;99.90;;;;;;5072454;28;20656;-76
2021/03/02 12:43:46;;;;;;;4.38;3.63;;;15.30;99.90;;;;;;5072413;28;20250;-74
2021/03/02 12:46:12;;;;;;;6.13;3.55;;;15.30;99.90;;;;;;5072224;28;20251;-74
2021/03/02 12:48:38;;;;;;;7.10;2.95;;;15.40;99.90;;;;;;5072196;28;20162;-75
2021/03/02 12:51:04;;;;;;;3.10;2.55;;;15.30;99.90;;;;;;5072054;28;20693;-75
2021/03/02 12:53:30;;;;;;;2.28;1.73;;;15.40;99.90;;;;;;5071935;28;20212;-75
2021/03/02 12:55:55;;;;;;;3.08;2.65;;;15.40;99.90;;;;;;5072197;28;20292;-75
2021/03/02 12:58:21;;;;;;;3.80;1.80;;;15.40;99.90;;;;;;5072065;28;20229;-76
2021/03/02 13:00:47;;;;;;;3.45;3.13;;;15.40;99.90;;;;;;5076107;28;20241;-79